sensor_id;sensor_type;location;lat;lon;timestamp;P1;durP1;ratioP1;P2;durP2;ratioP2
1479;SDS011;732;51.698;4.886;2024-03-22T00:02:21;81.17;;;38.63;;
1479;SDS011;732;51.698;4.886;2024-03-22T00:04:49;75.53;;;35.70;;
1479;SDS011;732;51.698;4.886;2024-03-22T00:07:16;74.90;;;36.40;;
1479;SDS011;732;51.698;4.886;2024-03-22T00:09:43;80.90;;;37.93;;
1479;SDS011;732;51.698;4.886;2024-03-22T00:12:10;82.30;;;38.17;;
1479;SDS011;732;51.698;4.886;2024-03-22T00:14:37;79.43;;;38.20;;
1479;SDS011;732;51.698;4.886;2024-03-22T00:17:05;78.03;;;36.27;;
1479;SDS011;732;51.698;4.886;2024-03-22T00:19:31;74.80;;;36.67;;
1479;SDS011;732;51.698;4.886;2024-03-22T00:22:00;74.77;;;36.50;;
1479;SDS011;732;51.698;4.886;2024-03-22T00:24:26;76.23;;;36.87;;
1479;SDS011;732;51.698;4.886;2024-03-22T00:26:54;86.83;;;36.27;;
1479;SDS011;732;51.698;4.886;2024-03-22T00:29:21;75.83;;;37.77;;
1479;SDS011;732;51.698;4.886;2024-03-22T00:31:48;81.97;;;39.80;;
1479;SDS011;732;51.698;4.886;2024-03-22T00:34:15;79.50;;;38.03;;
1479;SDS011;732;51.698;4.886;2024-03-22T00:36:42;75.50;;;37.30;;
1479;SDS011;732;51.698;4.886;2024-03-22T00:39:10;82.00;;;38.73;;
1479;SDS011;732;51.698;4.886;2024-03-22T00:41:38;79.40;;;37.10;;
1479;SDS011;732;51.698;4.886;2024-03-22T00:44:05;85.23;;;38.03;;
1479;SDS011;732;51.698;4.886;2024-03-22T00:46:32;77.70;;;35.77;;
1479;SDS011;732;51.698;4.886;2024-03-22T00:49:01;77.93;;;36.77;;
1479;SDS011;732;51.698;4.886;2024-03-22T00:51:27;73.40;;;35.57;;
1479;SDS011;732;51.698;4.886;2024-03-22T00:53:55;85.67;;;37.87;;
1479;SDS011;732;51.698;4.886;2024-03-22T00:56:23;75.67;;;39.27;;
1479;SDS011;732;51.698;4.886;2024-03-22T00:58:51;72.13;;;36.63;;
1479;SDS011;732;51.698;4.886;2024-03-22T01:01:17;75.60;;;35.07;;
1479;SDS011;732;51.698;4.886;2024-03-22T01:03:45;79.10;;;37.00;;
1479;SDS011;732;51.698;4.886;2024-03-22T01:06:11;76.27;;;39.50;;
1479;SDS011;732;51.698;4.886;2024-03-22T01:08:39;69.50;;;36.57;;
1479;SDS011;732;51.698;4.886;2024-03-22T01:11:05;70.07;;;35.83;;
1479;SDS011;732;51.698;4.886;2024-03-22T01:13:34;71.20;;;35.23;;
1479;SDS011;732;51.698;4.886;2024-03-22T01:16:01;76.53;;;36.47;;
1479;SDS011;732;51.698;4.886;2024-03-22T01:18:29;66.43;;;34.57;;
1479;SDS011;732;51.698;4.886;2024-03-22T01:20:55;70.87;;;34.43;;
1479;SDS011;732;51.698;4.886;2024-03-22T01:23:23;72.07;;;34.13;;
1479;SDS011;732;51.698;4.886;2024-03-22T01:25:50;67.47;;;34.93;;
1479;SDS011;732;51.698;4.886;2024-03-22T01:28:18;64.37;;;33.53;;
1479;SDS011;732;51.698;4.886;2024-03-22T01:30:47;66.63;;;33.33;;
1479;SDS011;732;51.698;4.886;2024-03-22T01:33:14;67.53;;;32.17;;
1479;SDS011;732;51.698;4.886;2024-03-22T01:35:41;63.97;;;32.40;;
1479;SDS011;732;51.698;4.886;2024-03-22T01:38:09;65.47;;;31.33;;
1479;SDS011;732;51.698;4.886;2024-03-22T01:40:35;64.97;;;34.10;;
1479;SDS011;732;51.698;4.886;2024-03-22T01:43:03;57.73;;;31.40;;
1479;SDS011;732;51.698;4.886;2024-03-22T01:45:31;65.20;;;31.97;;
1479;SDS011;732;51.698;4.886;2024-03-22T01:48:02;70.47;;;33.13;;
1479;SDS011;732;51.698;4.886;2024-03-22T01:50:29;65.60;;;33.97;;
1479;SDS011;732;51.698;4.886;2024-03-22T01:52:57;62.00;;;32.30;;
1479;SDS011;732;51.698;4.886;2024-03-22T01:55:24;52.43;;;29.57;;
1479;SDS011;732;51.698;4.886;2024-03-22T01:57:52;52.60;;;29.60;;
1479;SDS011;732;51.698;4.886;2024-03-22T02:00:21;57.33;;;29.93;;
1479;SDS011;732;51.698;4.886;2024-03-22T02:02:49;56.83;;;30.03;;
1479;SDS011;732;51.698;4.886;2024-03-22T02:09:05;58.00;;;31.00;;
1479;SDS011;732;51.698;4.886;2024-03-22T02:11:34;46.37;;;26.67;;
1479;SDS011;732;51.698;4.886;2024-03-22T02:14:03;53.87;;;26.57;;
1479;SDS011;732;51.698;4.886;2024-03-22T02:16:30;47.10;;;26.60;;
1479;SDS011;732;51.698;4.886;2024-03-22T02:18:58;47.67;;;24.70;;
1479;SDS011;732;51.698;4.886;2024-03-22T02:21:25;51.43;;;25.17;;
1479;SDS011;732;51.698;4.886;2024-03-22T02:23:54;47.83;;;25.07;;
1479;SDS011;732;51.698;4.886;2024-03-22T02:26:21;45.27;;;23.20;;
1479;SDS011;732;51.698;4.886;2024-03-22T02:28:48;48.33;;;25.87;;
1479;SDS011;732;51.698;4.886;2024-03-22T02:31:16;52.20;;;25.43;;
1479;SDS011;732;51.698;4.886;2024-03-22T02:33:42;48.60;;;24.93;;
1479;SDS011;732;51.698;4.886;2024-03-22T02:36:10;50.83;;;27.10;;
1479;SDS011;732;51.698;4.886;2024-03-22T02:38:36;53.37;;;26.77;;
1479;SDS011;732;51.698;4.886;2024-03-22T02:41:05;53.87;;;25.30;;
1479;SDS011;732;51.698;4.886;2024-03-22T02:43:32;53.93;;;25.47;;
1479;SDS011;732;51.698;4.886;2024-03-22T02:45:59;49.37;;;25.70;;
1479;SDS011;732;51.698;4.886;2024-03-22T02:48:26;48.90;;;25.50;;
1479;SDS011;732;51.698;4.886;2024-03-22T02:50:55;52.10;;;27.20;;
1479;SDS011;732;51.698;4.886;2024-03-22T02:53:21;47.37;;;25.30;;
1479;SDS011;732;51.698;4.886;2024-03-22T02:55:49;48.73;;;26.27;;
1479;SDS011;732;51.698;4.886;2024-03-22T02:58:19;53.90;;;27.60;;
1479;SDS011;732;51.698;4.886;2024-03-22T03:00:47;54.17;;;27.63;;
1479;SDS011;732;51.698;4.886;2024-03-22T03:03:14;56.80;;;28.10;;
1479;SDS011;732;51.698;4.886;2024-03-22T03:05:42;53.53;;;27.20;;
1479;SDS011;732;51.698;4.886;2024-03-22T03:08:09;54.20;;;27.50;;
1479;SDS011;732;51.698;4.886;2024-03-22T03:10:37;56.93;;;27.07;;
1479;SDS011;732;51.698;4.886;2024-03-22T03:13:03;53.20;;;25.90;;
1479;SDS011;732;51.698;4.886;2024-03-22T03:15:32;55.97;;;27.23;;
1479;SDS011;732;51.698;4.886;2024-03-22T03:17:59;59.30;;;28.30;;
1479;SDS011;732;51.698;4.886;2024-03-22T03:20:27;62.83;;;28.20;;
1479;SDS011;732;51.698;4.886;2024-03-22T03:22:53;56.27;;;26.00;;
1479;SDS011;732;51.698;4.886;2024-03-22T03:25:25;64.37;;;29.37;;
1479;SDS011;732;51.698;4.886;2024-03-22T03:27:51;59.53;;;27.30;;
1479;SDS011;732;51.698;4.886;2024-03-22T03:30:19;60.80;;;28.40;;
1479;SDS011;732;51.698;4.886;2024-03-22T03:32:47;58.27;;;27.60;;
1479;SDS011;732;51.698;4.886;2024-03-22T03:35:15;58.27;;;27.10;;
1479;SDS011;732;51.698;4.886;2024-03-22T03:37:42;57.30;;;26.60;;
1479;SDS011;732;51.698;4.886;2024-03-22T03:40:09;58.30;;;28.40;;
1479;SDS011;732;51.698;4.886;2024-03-22T03:42:37;56.13;;;26.77;;
1479;SDS011;732;51.698;4.886;2024-03-22T03:45:04;60.57;;;26.77;;
1479;SDS011;732;51.698;4.886;2024-03-22T03:47:32;54.10;;;26.73;;
1479;SDS011;732;51.698;4.886;2024-03-22T03:50:01;61.60;;;28.70;;
1479;SDS011;732;51.698;4.886;2024-03-22T03:52:28;56.47;;;26.87;;
1479;SDS011;732;51.698;4.886;2024-03-22T03:54:56;68.33;;;28.97;;
1479;SDS011;732;51.698;4.886;2024-03-22T03:57:23;55.70;;;27.73;;
1479;SDS011;732;51.698;4.886;2024-03-22T03:59:50;58.40;;;28.27;;
1479;SDS011;732;51.698;4.886;2024-03-22T04:02:17;58.67;;;27.77;;
1479;SDS011;732;51.698;4.886;2024-03-22T04:04:46;56.80;;;26.33;;
1479;SDS011;732;51.698;4.886;2024-03-22T04:07:15;54.80;;;27.30;;
1479;SDS011;732;51.698;4.886;2024-03-22T04:09:42;52.90;;;25.50;;
1479;SDS011;732;51.698;4.886;2024-03-22T04:12:10;48.60;;;26.60;;
1479;SDS011;732;51.698;4.886;2024-03-22T04:14:37;55.03;;;27.30;;
1479;SDS011;732;51.698;4.886;2024-03-22T04:17:04;49.67;;;24.40;;
1479;SDS011;732;51.698;4.886;2024-03-22T04:19:32;56.67;;;27.20;;
1479;SDS011;732;51.698;4.886;2024-03-22T04:21:59;46.43;;;24.57;;
1479;SDS011;732;51.698;4.886;2024-03-22T04:24:29;46.13;;;22.60;;
1479;SDS011;732;51.698;4.886;2024-03-22T04:26:55;50.40;;;24.30;;
1479;SDS011;732;51.698;4.886;2024-03-22T04:29:23;54.00;;;27.10;;
1479;SDS011;732;51.698;4.886;2024-03-22T04:31:49;57.07;;;25.47;;
1479;SDS011;732;51.698;4.886;2024-03-22T04:34:17;49.10;;;26.43;;
1479;SDS011;732;51.698;4.886;2024-03-22T04:36:44;51.43;;;26.17;;
1479;SDS011;732;51.698;4.886;2024-03-22T04:39:11;49.10;;;26.30;;
1479;SDS011;732;51.698;4.886;2024-03-22T04:41:43;52.93;;;26.00;;
1479;SDS011;732;51.698;4.886;2024-03-22T04:44:11;50.87;;;27.27;;
1479;SDS011;732;51.698;4.886;2024-03-22T04:46:38;49.83;;;24.97;;
1479;SDS011;732;51.698;4.886;2024-03-22T04:49:05;50.40;;;23.40;;
1479;SDS011;732;51.698;4.886;2024-03-22T04:51:32;44.57;;;24.53;;
1479;SDS011;732;51.698;4.886;2024-03-22T04:53:59;44.23;;;24.10;;
1479;SDS011;732;51.698;4.886;2024-03-22T04:56:26;40.40;;;22.37;;
1479;SDS011;732;51.698;4.886;2024-03-22T04:58:55;43.60;;;21.57;;
1479;SDS011;732;51.698;4.886;2024-03-22T05:01:22;45.13;;;23.30;;
1479;SDS011;732;51.698;4.886;2024-03-22T05:03:49;39.60;;;22.30;;
1479;SDS011;732;51.698;4.886;2024-03-22T05:06:17;44.50;;;22.60;;
1479;SDS011;732;51.698;4.886;2024-03-22T05:08:45;43.47;;;22.63;;
1479;SDS011;732;51.698;4.886;2024-03-22T05:11:12;39.07;;;20.73;;
1479;SDS011;732;51.698;4.886;2024-03-22T05:13:39;47.13;;;22.67;;
1479;SDS011;732;51.698;4.886;2024-03-22T05:16:07;45.60;;;20.57;;
1479;SDS011;732;51.698;4.886;2024-03-22T05:18:36;43.60;;;22.03;;
1479;SDS011;732;51.698;4.886;2024-03-22T05:21:03;42.90;;;21.90;;
1479;SDS011;732;51.698;4.886;2024-03-22T05:23:32;38.60;;;20.90;;
1479;SDS011;732;51.698;4.886;2024-03-22T05:25:58;40.00;;;20.47;;
1479;SDS011;732;51.698;4.886;2024-03-22T05:28:26;41.80;;;21.53;;
1479;SDS011;732;51.698;4.886;2024-03-22T05:30:53;47.67;;;20.70;;
1479;SDS011;732;51.698;4.886;2024-03-22T05:33:24;38.27;;;20.40;;
1479;SDS011;732;51.698;4.886;2024-03-22T05:35:51;47.93;;;21.80;;
1479;SDS011;732;51.698;4.886;2024-03-22T05:38:18;42.40;;;21.23;;
1479;SDS011;732;51.698;4.886;2024-03-22T05:40:45;39.70;;;19.97;;
1479;SDS011;732;51.698;4.886;2024-03-22T05:43:13;42.20;;;20.60;;
1479;SDS011;732;51.698;4.886;2024-03-22T05:45:40;40.23;;;20.93;;
1479;SDS011;732;51.698;4.886;2024-03-22T05:48:08;37.80;;;20.73;;
1479;SDS011;732;51.698;4.886;2024-03-22T05:50:36;45.03;;;20.50;;
1479;SDS011;732;51.698;4.886;2024-03-22T05:53:03;41.47;;;20.57;;
1479;SDS011;732;51.698;4.886;2024-03-22T05:55:31;40.43;;;20.57;;
1479;SDS011;732;51.698;4.886;2024-03-22T05:57:59;39.70;;;20.10;;
1479;SDS011;732;51.698;4.886;2024-03-22T06:00:26;38.60;;;19.00;;
1479;SDS011;732;51.698;4.886;2024-03-22T06:02:53;39.70;;;19.93;;
1479;SDS011;732;51.698;4.886;2024-03-22T06:05:20;40.80;;;19.83;;
1479;SDS011;732;51.698;4.886;2024-03-22T06:07:49;44.73;;;19.47;;
1479;SDS011;732;51.698;4.886;2024-03-22T06:10:16;41.47;;;20.90;;
1479;SDS011;732;51.698;4.886;2024-03-22T06:12:45;46.60;;;20.47;;
1479;SDS011;732;51.698;4.886;2024-03-22T06:15:12;45.33;;;21.30;;
1479;SDS011;732;51.698;4.886;2024-03-22T06:17:40;42.97;;;21.50;;
1479;SDS011;732;51.698;4.886;2024-03-22T06:20:08;47.07;;;22.33;;
1479;SDS011;732;51.698;4.886;2024-03-22T06:22:38;44.77;;;21.00;;
1479;SDS011;732;51.698;4.886;2024-03-22T06:25:06;43.17;;;21.13;;
1479;SDS011;732;51.698;4.886;2024-03-22T06:27:33;41.50;;;21.57;;
1479;SDS011;732;51.698;4.886;2024-03-22T06:30:00;39.50;;;19.60;;
1479;SDS011;732;51.698;4.886;2024-03-22T06:32:28;39.10;;;20.33;;
1479;SDS011;732;51.698;4.886;2024-03-22T06:34:55;51.43;;;21.27;;
1479;SDS011;732;51.698;4.886;2024-03-22T06:37:23;40.17;;;20.73;;
1479;SDS011;732;51.698;4.886;2024-03-22T06:39:49;42.73;;;21.77;;
1479;SDS011;732;51.698;4.886;2024-03-22T06:42:18;42.37;;;21.47;;
1479;SDS011;732;51.698;4.886;2024-03-22T06:44:45;48.50;;;21.67;;
1479;SDS011;732;51.698;4.886;2024-03-22T06:47:12;43.07;;;21.57;;
1479;SDS011;732;51.698;4.886;2024-03-22T06:49:39;45.30;;;22.17;;
1479;SDS011;732;51.698;4.886;2024-03-22T06:52:07;43.23;;;19.87;;
1479;SDS011;732;51.698;4.886;2024-03-22T06:54:33;48.63;;;22.80;;
1479;SDS011;732;51.698;4.886;2024-03-22T06:57:01;41.60;;;20.10;;
1479;SDS011;732;51.698;4.886;2024-03-22T06:59:29;47.47;;;21.77;;
1479;SDS011;732;51.698;4.886;2024-03-22T07:01:58;42.30;;;21.50;;
1479;SDS011;732;51.698;4.886;2024-03-22T07:04:24;42.00;;;19.90;;
1479;SDS011;732;51.698;4.886;2024-03-22T07:06:52;42.27;;;20.80;;
1479;SDS011;732;51.698;4.886;2024-03-22T07:09:19;46.70;;;22.23;;
1479;SDS011;732;51.698;4.886;2024-03-22T07:11:47;42.10;;;21.00;;
1479;SDS011;732;51.698;4.886;2024-03-22T07:14:13;41.80;;;22.13;;
1479;SDS011;732;51.698;4.886;2024-03-22T07:16:43;40.70;;;20.57;;
1479;SDS011;732;51.698;4.886;2024-03-22T07:19:09;41.50;;;20.83;;
1479;SDS011;732;51.698;4.886;2024-03-22T07:21:37;41.83;;;19.80;;
1479;SDS011;732;51.698;4.886;2024-03-22T07:24:04;42.67;;;20.20;;
1479;SDS011;732;51.698;4.886;2024-03-22T07:26:32;36.00;;;19.83;;
1479;SDS011;732;51.698;4.886;2024-03-22T07:28:59;36.90;;;18.77;;
1479;SDS011;732;51.698;4.886;2024-03-22T07:31:27;36.70;;;18.70;;
1479;SDS011;732;51.698;4.886;2024-03-22T07:33:55;39.37;;;20.40;;
1479;SDS011;732;51.698;4.886;2024-03-22T07:36:23;36.50;;;18.70;;
1479;SDS011;732;51.698;4.886;2024-03-22T07:38:49;39.77;;;19.90;;
1479;SDS011;732;51.698;4.886;2024-03-22T07:41:17;41.20;;;21.40;;
1479;SDS011;732;51.698;4.886;2024-03-22T07:43:43;40.63;;;19.10;;
1479;SDS011;732;51.698;4.886;2024-03-22T07:46:11;36.40;;;19.17;;
1479;SDS011;732;51.698;4.886;2024-03-22T07:48:38;36.43;;;17.97;;
1479;SDS011;732;51.698;4.886;2024-03-22T07:51:08;36.77;;;17.90;;
1479;SDS011;732;51.698;4.886;2024-03-22T07:53:34;35.87;;;19.10;;
1479;SDS011;732;51.698;4.886;2024-03-22T07:56:02;33.23;;;17.23;;
1479;SDS011;732;51.698;4.886;2024-03-22T07:58:29;37.63;;;18.77;;
1479;SDS011;732;51.698;4.886;2024-03-22T08:00:57;34.17;;;17.43;;
1479;SDS011;732;51.698;4.886;2024-03-22T08:03:23;35.57;;;16.77;;
1479;SDS011;732;51.698;4.886;2024-03-22T08:05:51;32.80;;;17.53;;
1479;SDS011;732;51.698;4.886;2024-03-22T08:08:19;37.00;;;17.63;;
1479;SDS011;732;51.698;4.886;2024-03-22T08:10:47;29.73;;;16.70;;
1479;SDS011;732;51.698;4.886;2024-03-22T08:13:14;28.97;;;17.07;;
1479;SDS011;732;51.698;4.886;2024-03-22T08:15:41;40.43;;;17.90;;
1479;SDS011;732;51.698;4.886;2024-03-22T08:18:11;35.93;;;17.23;;
1479;SDS011;732;51.698;4.886;2024-03-22T08:20:39;35.13;;;18.20;;
1479;SDS011;732;51.698;4.886;2024-03-22T08:23:05;35.50;;;18.27;;
1479;SDS011;732;51.698;4.886;2024-03-22T08:25:35;38.93;;;17.20;;
1479;SDS011;732;51.698;4.886;2024-03-22T08:28:02;36.70;;;19.13;;
1479;SDS011;732;51.698;4.886;2024-03-22T08:30:31;36.13;;;18.97;;
1479;SDS011;732;51.698;4.886;2024-03-22T08:32:57;36.80;;;18.77;;
1479;SDS011;732;51.698;4.886;2024-03-22T08:35:25;32.40;;;17.40;;
1479;SDS011;732;51.698;4.886;2024-03-22T08:37:52;35.47;;;18.20;;
1479;SDS011;732;51.698;4.886;2024-03-22T08:40:19;33.53;;;18.40;;
1479;SDS011;732;51.698;4.886;2024-03-22T08:42:48;33.13;;;18.00;;
1479;SDS011;732;51.698;4.886;2024-03-22T08:45:16;34.60;;;18.20;;
1479;SDS011;732;51.698;4.886;2024-03-22T08:47:42;35.93;;;18.47;;
1479;SDS011;732;51.698;4.886;2024-03-22T08:50:11;37.77;;;18.70;;
1479;SDS011;732;51.698;4.886;2024-03-22T08:52:37;36.30;;;19.60;;
1479;SDS011;732;51.698;4.886;2024-03-22T08:55:05;40.30;;;18.80;;
1479;SDS011;732;51.698;4.886;2024-03-22T08:57:32;37.40;;;19.90;;
1479;SDS011;732;51.698;4.886;2024-03-22T09:00:02;45.17;;;20.13;;
1479;SDS011;732;51.698;4.886;2024-03-22T09:02:29;35.00;;;19.47;;
1479;SDS011;732;51.698;4.886;2024-03-22T09:04:57;35.43;;;18.77;;
1479;SDS011;732;51.698;4.886;2024-03-22T09:07:23;39.10;;;20.03;;
1479;SDS011;732;51.698;4.886;2024-03-22T09:09:51;36.43;;;18.57;;
1479;SDS011;732;51.698;4.886;2024-03-22T09:12:18;38.83;;;19.43;;
1479;SDS011;732;51.698;4.886;2024-03-22T09:14:46;39.93;;;19.47;;
1479;SDS011;732;51.698;4.886;2024-03-22T09:17:14;32.57;;;17.90;;
1479;SDS011;732;51.698;4.886;2024-03-22T09:19:42;31.00;;;17.13;;
1479;SDS011;732;51.698;4.886;2024-03-22T09:22:09;32.10;;;17.00;;
1479;SDS011;732;51.698;4.886;2024-03-22T09:24:36;32.70;;;18.13;;
1479;SDS011;732;51.698;4.886;2024-03-22T09:27:03;34.10;;;17.63;;
1479;SDS011;732;51.698;4.886;2024-03-22T09:29:34;36.83;;;19.30;;
1479;SDS011;732;51.698;4.886;2024-03-22T09:32:01;33.40;;;18.37;;
1479;SDS011;732;51.698;4.886;2024-03-22T09:34:30;31.80;;;16.70;;
1479;SDS011;732;51.698;4.886;2024-03-22T09:36:57;32.90;;;16.73;;
1479;SDS011;732;51.698;4.886;2024-03-22T09:39:25;35.33;;;17.90;;
1479;SDS011;732;51.698;4.886;2024-03-22T09:41:52;33.83;;;16.47;;
1479;SDS011;732;51.698;4.886;2024-03-22T09:44:25;29.10;;;17.20;;
1479;SDS011;732;51.698;4.886;2024-03-22T09:46:54;27.90;;;16.80;;
1479;SDS011;732;51.698;4.886;2024-03-22T09:49:23;33.80;;;16.40;;
1479;SDS011;732;51.698;4.886;2024-03-22T09:51:51;41.03;;;18.20;;
1479;SDS011;732;51.698;4.886;2024-03-22T09:54:19;35.07;;;17.77;;
1479;SDS011;732;51.698;4.886;2024-03-22T09:56:47;36.10;;;17.90;;
1479;SDS011;732;51.698;4.886;2024-03-22T09:59:16;36.70;;;17.60;;
1479;SDS011;732;51.698;4.886;2024-03-22T10:01:43;31.43;;;18.57;;
1479;SDS011;732;51.698;4.886;2024-03-22T10:04:13;36.43;;;18.47;;
1479;SDS011;732;51.698;4.886;2024-03-22T10:06:39;39.87;;;20.73;;
1479;SDS011;732;51.698;4.886;2024-03-22T10:09:09;36.93;;;19.87;;
1479;SDS011;732;51.698;4.886;2024-03-22T10:11:35;39.73;;;19.33;;
1479;SDS011;732;51.698;4.886;2024-03-22T10:14:03;38.13;;;19.93;;
1479;SDS011;732;51.698;4.886;2024-03-22T10:16:32;41.87;;;20.83;;
1479;SDS011;732;51.698;4.886;2024-03-22T10:19:01;46.20;;;22.20;;
1479;SDS011;732;51.698;4.886;2024-03-22T10:21:28;39.97;;;21.97;;
1479;SDS011;732;51.698;4.886;2024-03-22T10:23:57;48.57;;;22.70;;
1479;SDS011;732;51.698;4.886;2024-03-22T10:26:25;41.17;;;23.07;;
1479;SDS011;732;51.698;4.886;2024-03-22T10:28:53;41.60;;;23.17;;
1479;SDS011;732;51.698;4.886;2024-03-22T10:31:20;42.47;;;22.20;;
1479;SDS011;732;51.698;4.886;2024-03-22T10:33:48;46.60;;;23.90;;
1479;SDS011;732;51.698;4.886;2024-03-22T10:36:16;48.23;;;23.23;;
1479;SDS011;732;51.698;4.886;2024-03-22T10:38:45;47.13;;;22.93;;
1479;SDS011;732;51.698;4.886;2024-03-22T10:41:17;45.80;;;23.87;;
1479;SDS011;732;51.698;4.886;2024-03-22T10:43:46;43.33;;;20.77;;
1479;SDS011;732;51.698;4.886;2024-03-22T10:46:13;39.87;;;18.67;;
1479;SDS011;732;51.698;4.886;2024-03-22T10:48:43;38.33;;;18.47;;
1479;SDS011;732;51.698;4.886;2024-03-22T10:51:10;32.53;;;16.00;;
1479;SDS011;732;51.698;4.886;2024-03-22T10:53:39;26.97;;;15.90;;
1479;SDS011;732;51.698;4.886;2024-03-22T10:56:07;29.30;;;15.63;;
1479;SDS011;732;51.698;4.886;2024-03-22T10:58:39;29.83;;;16.13;;
1479;SDS011;732;51.698;4.886;2024-03-22T11:01:10;31.97;;;16.33;;
1479;SDS011;732;51.698;4.886;2024-03-22T11:03:49;34.10;;;15.40;;
1479;SDS011;732;51.698;4.886;2024-03-22T11:06:20;26.73;;;14.70;;
1479;SDS011;732;51.698;4.886;2024-03-22T11:08:49;23.73;;;15.07;;
1479;SDS011;732;51.698;4.886;2024-03-22T11:11:17;30.30;;;15.20;;
1479;SDS011;732;51.698;4.886;2024-03-22T11:13:46;22.03;;;14.10;;
1479;SDS011;732;51.698;4.886;2024-03-22T11:16:15;29.00;;;16.47;;
1479;SDS011;732;51.698;4.886;2024-03-22T11:18:43;28.70;;;13.77;;
1479;SDS011;732;51.698;4.886;2024-03-22T11:21:10;28.60;;;15.37;;
1479;SDS011;732;51.698;4.886;2024-03-22T11:23:38;31.43;;;16.90;;
1479;SDS011;732;51.698;4.886;2024-03-22T11:26:05;25.97;;;15.73;;
1479;SDS011;732;51.698;4.886;2024-03-22T11:28:33;27.20;;;16.67;;
1479;SDS011;732;51.698;4.886;2024-03-22T11:31:01;31.30;;;14.97;;
1479;SDS011;732;51.698;4.886;2024-03-22T11:33:31;24.80;;;13.80;;
1479;SDS011;732;51.698;4.886;2024-03-22T11:35:58;25.30;;;15.70;;
1479;SDS011;732;51.698;4.886;2024-03-22T11:38:26;25.43;;;14.50;;
1479;SDS011;732;51.698;4.886;2024-03-22T11:40:53;23.63;;;14.00;;
1479;SDS011;732;51.698;4.886;2024-03-22T11:43:25;25.33;;;12.97;;
1479;SDS011;732;51.698;4.886;2024-03-22T11:45:53;21.63;;;13.77;;
1479;SDS011;732;51.698;4.886;2024-03-22T11:48:21;29.40;;;14.17;;
1479;SDS011;732;51.698;4.886;2024-03-22T11:50:49;28.00;;;14.63;;
1479;SDS011;732;51.698;4.886;2024-03-22T11:53:19;24.60;;;13.40;;
1479;SDS011;732;51.698;4.886;2024-03-22T11:55:45;18.40;;;12.17;;
1479;SDS011;732;51.698;4.886;2024-03-22T11:58:18;19.97;;;11.60;;
1479;SDS011;732;51.698;4.886;2024-03-22T12:00:44;20.50;;;11.80;;
1479;SDS011;732;51.698;4.886;2024-03-22T12:03:12;22.70;;;11.97;;
1479;SDS011;732;51.698;4.886;2024-03-22T12:05:40;21.40;;;11.60;;
1479;SDS011;732;51.698;4.886;2024-03-22T12:08:09;22.80;;;12.57;;
1479;SDS011;732;51.698;4.886;2024-03-22T12:10:36;21.23;;;11.20;;
1479;SDS011;732;51.698;4.886;2024-03-22T12:13:04;20.90;;;11.60;;
1479;SDS011;732;51.698;4.886;2024-03-22T12:15:31;17.03;;;11.63;;
1479;SDS011;732;51.698;4.886;2024-03-22T12:17:59;19.53;;;11.60;;
1479;SDS011;732;51.698;4.886;2024-03-22T12:20:25;20.70;;;10.77;;
1479;SDS011;732;51.698;4.886;2024-03-22T12:22:53;19.97;;;12.43;;
1479;SDS011;732;51.698;4.886;2024-03-22T12:25:23;23.00;;;11.50;;
1479;SDS011;732;51.698;4.886;2024-03-22T12:27:51;17.07;;;11.00;;
1479;SDS011;732;51.698;4.886;2024-03-22T12:30:18;23.63;;;11.47;;
1479;SDS011;732;51.698;4.886;2024-03-22T12:32:45;19.70;;;11.40;;
1479;SDS011;732;51.698;4.886;2024-03-22T12:35:12;21.83;;;11.90;;
1479;SDS011;732;51.698;4.886;2024-03-22T12:37:59;21.97;;;12.43;;
1479;SDS011;732;51.698;4.886;2024-03-22T12:40:28;17.93;;;11.60;;
1479;SDS011;732;51.698;4.886;2024-03-22T12:42:59;21.03;;;12.90;;
1479;SDS011;732;51.698;4.886;2024-03-22T12:45:26;22.67;;;10.77;;
1479;SDS011;732;51.698;4.886;2024-03-22T12:47:54;19.80;;;9.60;;
1479;SDS011;732;51.698;4.886;2024-03-22T12:50:21;21.60;;;10.33;;
1479;SDS011;732;51.698;4.886;2024-03-22T12:52:52;20.37;;;8.97;;
1479;SDS011;732;51.698;4.886;2024-03-22T12:55:23;19.30;;;9.50;;
1479;SDS011;732;51.698;4.886;2024-03-22T12:57:52;24.57;;;9.83;;
1479;SDS011;732;51.698;4.886;2024-03-22T13:00:20;23.10;;;9.37;;
1479;SDS011;732;51.698;4.886;2024-03-22T13:02:47;24.00;;;8.83;;
1479;SDS011;732;51.698;4.886;2024-03-22T13:05:15;19.20;;;8.40;;
1479;SDS011;732;51.698;4.886;2024-03-22T13:07:45;16.10;;;8.10;;
1479;SDS011;732;51.698;4.886;2024-03-22T13:10:13;23.87;;;8.27;;
1479;SDS011;732;51.698;4.886;2024-03-22T13:12:40;16.83;;;8.20;;
1479;SDS011;732;51.698;4.886;2024-03-22T13:15:09;20.30;;;8.33;;
1479;SDS011;732;51.698;4.886;2024-03-22T13:17:36;16.70;;;7.73;;
1479;SDS011;732;51.698;4.886;2024-03-22T13:20:05;17.07;;;8.47;;
1479;SDS011;732;51.698;4.886;2024-03-22T13:22:36;23.43;;;8.80;;
1479;SDS011;732;51.698;4.886;2024-03-22T13:25:04;15.80;;;8.03;;
1479;SDS011;732;51.698;4.886;2024-03-22T13:27:34;20.57;;;8.30;;
1479;SDS011;732;51.698;4.886;2024-03-22T13:30:05;16.20;;;8.30;;
1479;SDS011;732;51.698;4.886;2024-03-22T13:32:38;15.67;;;7.73;;
1479;SDS011;732;51.698;4.886;2024-03-22T13:35:07;21.40;;;9.13;;
1479;SDS011;732;51.698;4.886;2024-03-22T13:37:34;14.77;;;7.47;;
1479;SDS011;732;51.698;4.886;2024-03-22T13:40:02;19.93;;;7.47;;
1479;SDS011;732;51.698;4.886;2024-03-22T13:42:29;14.73;;;7.60;;
1479;SDS011;732;51.698;4.886;2024-03-22T13:44:59;15.07;;;7.33;;
1479;SDS011;732;51.698;4.886;2024-03-22T13:47:26;18.70;;;7.70;;
1479;SDS011;732;51.698;4.886;2024-03-22T13:49:55;16.70;;;6.77;;
1479;SDS011;732;51.698;4.886;2024-03-22T13:52:22;12.43;;;6.20;;
1479;SDS011;732;51.698;4.886;2024-03-22T13:54:51;13.23;;;6.00;;
1479;SDS011;732;51.698;4.886;2024-03-22T13:57:18;12.90;;;6.30;;
1479;SDS011;732;51.698;4.886;2024-03-22T13:59:46;14.87;;;7.30;;
1479;SDS011;732;51.698;4.886;2024-03-22T14:02:13;15.13;;;6.63;;
1479;SDS011;732;51.698;4.886;2024-03-22T14:04:40;13.07;;;6.90;;
1479;SDS011;732;51.698;4.886;2024-03-22T14:07:10;16.70;;;8.17;;
1479;SDS011;732;51.698;4.886;2024-03-22T14:09:37;15.80;;;7.70;;
1479;SDS011;732;51.698;4.886;2024-03-22T14:12:05;17.53;;;8.43;;
1479;SDS011;732;51.698;4.886;2024-03-22T14:14:34;14.97;;;9.17;;
1479;SDS011;732;51.698;4.886;2024-03-22T14:17:00;14.17;;;8.43;;
1479;SDS011;732;51.698;4.886;2024-03-22T14:19:29;12.70;;;7.70;;
1479;SDS011;732;51.698;4.886;2024-03-22T14:21:55;12.53;;;7.47;;
1479;SDS011;732;51.698;4.886;2024-03-22T14:24:24;12.50;;;7.60;;
1479;SDS011;732;51.698;4.886;2024-03-22T14:26:52;16.27;;;9.07;;
1479;SDS011;732;51.698;4.886;2024-03-22T14:29:19;16.10;;;9.77;;
1479;SDS011;732;51.698;4.886;2024-03-22T14:31:46;14.83;;;9.20;;
1479;SDS011;732;51.698;4.886;2024-03-22T14:34:13;21.03;;;11.30;;
1479;SDS011;732;51.698;4.886;2024-03-22T14:36:42;20.67;;;12.00;;
1479;SDS011;732;51.698;4.886;2024-03-22T14:39:09;30.00;;;13.70;;
1479;SDS011;732;51.698;4.886;2024-03-22T14:41:38;20.73;;;10.60;;
1479;SDS011;732;51.698;4.886;2024-03-22T14:44:05;22.20;;;10.10;;
1479;SDS011;732;51.698;4.886;2024-03-22T14:46:32;21.30;;;9.20;;
1479;SDS011;732;51.698;4.886;2024-03-22T14:48:59;27.17;;;9.30;;
1479;SDS011;732;51.698;4.886;2024-03-22T14:51:27;20.63;;;9.33;;
1479;SDS011;732;51.698;4.886;2024-03-22T14:53:54;26.43;;;10.73;;
1479;SDS011;732;51.698;4.886;2024-03-22T14:56:22;29.27;;;10.80;;
1479;SDS011;732;51.698;4.886;2024-03-22T14:58:51;27.33;;;11.73;;
1479;SDS011;732;51.698;4.886;2024-03-22T15:01:19;32.03;;;12.10;;
1479;SDS011;732;51.698;4.886;2024-03-22T15:03:45;29.43;;;15.27;;
1479;SDS011;732;51.698;4.886;2024-03-22T15:06:13;29.47;;;14.27;;
1479;SDS011;732;51.698;4.886;2024-03-22T15:08:40;30.93;;;15.67;;
1479;SDS011;732;51.698;4.886;2024-03-22T15:11:17;31.13;;;15.43;;